SXS5Y LTDA-LTBJ
Flight info
| Callsign | SXS5Y |
|---|---|
| Flight time | 1h 16m |
| Altitude | 37000 |
| Route | ADA UW74 MANAZ/N0455F270 W74 MUT/N0463F280 R55 KETEK/N0470F320 UR55 ADBEL R55 KONAK UR55 AYT/N0464F280 N135 BAPSI |
| Aircraft | B38M/M-SADE2E3GIJ4J7RW/LB1D1 |
Departure
| Time | 2026-05-06 16:42 |
|---|---|
| Airport | Hatay Airport (LTDA) |
Arrival
| Time | 2026-05-06 17:59 |
|---|---|
| Airport | Adnan Menderes International Airport (LTBJ) |
| Time | Latitude | Longitude | Altitude | Speed | Heading |
|---|---|---|---|---|---|
| 2026-05-06 16:17 | 36.36271 | 36.28270 | 283 ft | 0 kts | 270° |
| 2026-05-06 16:34 | 36.36270 | 36.28305 | 283 ft | 2 kts | 271° |
| 2026-05-06 16:34 | 36.36270 | 36.28323 | 283 ft | 2 kts | 271° |
| 2026-05-06 16:34 | 36.36269 | 36.28342 | 282 ft | 2 kts | 271° |
| 2026-05-06 16:34 | 36.36269 | 36.28355 | 282 ft | 0 kts | 272° |
| 2026-05-06 16:35 | 36.36272 | 36.28364 | 282 ft | 1 kts | 222° |
| 2026-05-06 16:35 | 36.36273 | 36.28366 | 282 ft | 0 kts | 224° |
| 2026-05-06 16:37 | 36.36265 | 36.28356 | 282 ft | 4 kts | 224° |
| 2026-05-06 16:37 | 36.36230 | 36.28326 | 282 ft | 7 kts | 185° |
| 2026-05-06 16:37 | 36.36175 | 36.28376 | 281 ft | 11 kts | 132° |
| 2026-05-06 16:37 | 36.36109 | 36.28465 | 281 ft | 14 kts | 132° |
| 2026-05-06 16:38 | 36.36087 | 36.28569 | 280 ft | 13 kts | 57° |
| 2026-05-06 16:38 | 36.36158 | 36.28656 | 281 ft | 14 kts | 43° |
| 2026-05-06 16:38 | 36.36235 | 36.28745 | 281 ft | 15 kts | 43° |
| 2026-05-06 16:38 | 36.36316 | 36.28837 | 281 ft | 16 kts | 42° |
| 2026-05-06 16:39 | 36.36403 | 36.28936 | 281 ft | 17 kts | 43° |
| 2026-05-06 16:39 | 36.36491 | 36.29039 | 281 ft | 17 kts | 43° |
| 2026-05-06 16:39 | 36.36585 | 36.29146 | 281 ft | 18 kts | 42° |
| 2026-05-06 16:39 | 36.36685 | 36.29260 | 281 ft | 19 kts | 42° |
| 2026-05-06 16:40 | 36.36788 | 36.29378 | 281 ft | 20 kts | 43° |
| 2026-05-06 16:40 | 36.36897 | 36.29503 | 281 ft | 21 kts | 42° |
| 2026-05-06 16:40 | 36.37007 | 36.29628 | 281 ft | 21 kts | 42° |
| 2026-05-06 16:40 | 36.37116 | 36.29754 | 281 ft | 20 kts | 43° |
| 2026-05-06 16:41 | 36.37209 | 36.29811 | 281 ft | 11 kts | 353° |
| 2026-05-06 16:41 | 36.37243 | 36.29859 | 281 ft | 8 kts | 128° |
| 2026-05-06 16:41 | 36.37201 | 36.29851 | 281 ft | 6 kts | 217° |
| 2026-05-06 16:41 | 36.37185 | 36.29835 | 281 ft | 0 kts | 220° |
| 2026-05-06 16:42 | 36.37128 | 36.29774 | 281 ft | 40 kts | 222° |
| 2026-05-06 16:42 | 36.36721 | 36.29298 | 281 ft | 116 kts | 223° |
| 2026-05-06 16:42 | 36.35962 | 36.28429 | 396 ft | 166 kts | 223° |
| 2026-05-06 16:42 | 36.35126 | 36.27500 | 1362 ft | 161 kts | 221° |
| 2026-05-06 16:43 | 36.34197 | 36.26522 | 1983 ft | 181 kts | 221° |
| 2026-05-06 16:43 | 36.33202 | 36.25467 | 2694 ft | 195 kts | 221° |
| 2026-05-06 16:43 | 36.32068 | 36.24283 | 3401 ft | 216 kts | 220° |
| 2026-05-06 16:43 | 36.30892 | 36.23088 | 4435 ft | 219 kts | 220° |
| 2026-05-06 16:44 | 36.29691 | 36.21865 | 5267 ft | 232 kts | 220° |
| 2026-05-06 16:44 | 36.28352 | 36.20646 | 5990 ft | 249 kts | 208° |
| 2026-05-06 16:44 | 36.26675 | 36.20072 | 6901 ft | 258 kts | 178° |
| 2026-05-06 16:44 | 36.24973 | 36.20648 | 7853 ft | 262 kts | 149° |
| 2026-05-06 16:45 | 36.23566 | 36.22129 | 8800 ft | 266 kts | 128° |
| 2026-05-06 16:45 | 36.22677 | 36.24192 | 9453 ft | 281 kts | 104° |
| 2026-05-06 16:45 | 36.22506 | 36.26621 | 10145 ft | 292 kts | 81° |
| 2026-05-06 16:45 | 36.23231 | 36.29027 | 10766 ft | 304 kts | 53° |
| 2026-05-06 16:46 | 36.24826 | 36.30809 | 11308 ft | 317 kts | 26° |
| 2026-05-06 16:46 | 36.26931 | 36.31633 | 12137 ft | 318 kts | 4° |
| 2026-05-06 16:46 | 36.29166 | 36.31475 | 12958 ft | 321 kts | 348° |
| 2026-05-06 16:46 | 36.31395 | 36.30804 | 13790 ft | 324 kts | 343° |
| 2026-05-06 16:47 | 36.33575 | 36.30025 | 14588 ft | 327 kts | 342° |
| 2026-05-06 16:47 | 36.35768 | 36.29247 | 15321 ft | 331 kts | 341° |
| 2026-05-06 16:47 | 36.37844 | 36.27953 | 15697 ft | 343 kts | 319° |
| 2026-05-06 16:47 | 36.39434 | 36.25709 | 16103 ft | 354 kts | 303° |
| 2026-05-06 16:48 | 36.40746 | 36.23029 | 16407 ft | 369 kts | 299° |
| 2026-05-06 16:48 | 36.42033 | 36.20190 | 16707 ft | 383 kts | 299° |
| 2026-05-06 16:48 | 36.43387 | 36.17313 | 16996 ft | 396 kts | 301° |
| 2026-05-06 16:48 | 36.44851 | 36.14381 | 17637 ft | 398 kts | 302° |
| 2026-05-06 16:49 | 36.46351 | 36.11494 | 18256 ft | 401 kts | 302° |
| 2026-05-06 16:49 | 36.47894 | 36.08589 | 18886 ft | 403 kts | 303° |
| 2026-05-06 16:49 | 36.49440 | 36.05704 | 19491 ft | 405 kts | 303° |
| 2026-05-06 16:49 | 36.51009 | 36.02779 | 20010 ft | 408 kts | 303° |
| 2026-05-06 16:50 | 36.52581 | 35.99844 | 20565 ft | 410 kts | 303° |
| 2026-05-06 16:50 | 36.54159 | 35.96890 | 21092 ft | 413 kts | 303° |
| 2026-05-06 16:50 | 36.55750 | 35.93905 | 21676 ft | 414 kts | 303° |
| 2026-05-06 16:50 | 36.57336 | 35.90926 | 22125 ft | 417 kts | 303° |
| 2026-05-06 16:51 | 36.58942 | 35.87904 | 22670 ft | 418 kts | 303° |
| 2026-05-06 16:51 | 36.60560 | 35.84857 | 23083 ft | 422 kts | 303° |
| 2026-05-06 16:51 | 36.62180 | 35.81800 | 23555 ft | 424 kts | 303° |
| 2026-05-06 16:51 | 36.63804 | 35.78734 | 24021 ft | 426 kts | 303° |
| 2026-05-06 16:52 | 36.65430 | 35.75663 | 24478 ft | 428 kts | 302° |
| 2026-05-06 16:52 | 36.67077 | 35.72547 | 24946 ft | 430 kts | 302° |
| 2026-05-06 16:52 | 36.68703 | 35.69468 | 25348 ft | 432 kts | 302° |
| 2026-05-06 16:52 | 36.70364 | 35.66319 | 25734 ft | 435 kts | 302° |
| 2026-05-06 16:53 | 36.72028 | 35.63163 | 26150 ft | 437 kts | 302° |
| 2026-05-06 16:53 | 36.73703 | 35.59983 | 26514 ft | 440 kts | 302° |
| 2026-05-06 16:53 | 36.75400 | 35.56759 | 26887 ft | 443 kts | 302° |
| 2026-05-06 16:53 | 36.77105 | 35.53515 | 27219 ft | 446 kts | 302° |
| 2026-05-06 16:54 | 36.78815 | 35.50262 | 27851 ft | 442 kts | 302° |
| 2026-05-06 16:54 | 36.80496 | 35.47059 | 28492 ft | 438 kts | 302° |
| 2026-05-06 16:54 | 36.82201 | 35.43807 | 28965 ft | 438 kts | 302° |
| 2026-05-06 16:54 | 36.83860 | 35.40639 | 29483 ft | 436 kts | 302° |
| 2026-05-06 16:55 | 36.85537 | 35.37432 | 30006 ft | 433 kts | 302° |
| 2026-05-06 16:55 | 36.87217 | 35.34217 | 30466 ft | 432 kts | 301° |
| 2026-05-06 16:55 | 36.88913 | 35.30970 | 30890 ft | 431 kts | 301° |
| 2026-05-06 16:55 | 36.90605 | 35.27699 | 31266 ft | 431 kts | 300° |
| 2026-05-06 16:56 | 36.92103 | 35.24274 | 31685 ft | 428 kts | 294° |
| 2026-05-06 16:56 | 36.93281 | 35.20586 | 32085 ft | 427 kts | 287° |
| 2026-05-06 16:56 | 36.94059 | 35.16862 | 32447 ft | 425 kts | 280° |
| 2026-05-06 16:56 | 36.94460 | 35.13110 | 32825 ft | 424 kts | 274° |
| 2026-05-06 16:57 | 36.94500 | 35.09336 | 33155 ft | 425 kts | 268° |
| 2026-05-06 16:57 | 36.94290 | 35.05594 | 33479 ft | 425 kts | 266° |
| 2026-05-06 16:57 | 36.93995 | 35.01833 | 33794 ft | 424 kts | 265° |
| 2026-05-06 16:57 | 36.93697 | 34.97960 | 34145 ft | 423 kts | 266° |
| 2026-05-06 16:58 | 36.93441 | 34.94113 | 34405 ft | 423 kts | 267° |
| 2026-05-06 16:58 | 36.93223 | 34.90123 | 34653 ft | 423 kts | 268° |
| 2026-05-06 16:58 | 36.93039 | 34.86019 | 34933 ft | 422 kts | 268° |
| 2026-05-06 16:58 | 36.92880 | 34.81969 | 35174 ft | 423 kts | 268° |
| 2026-05-06 16:59 | 36.92735 | 34.77919 | 35414 ft | 423 kts | 269° |
| 2026-05-06 16:59 | 36.92598 | 34.73941 | 35619 ft | 423 kts | 269° |
| 2026-05-06 16:59 | 36.92470 | 34.70116 | 35808 ft | 423 kts | 269° |
| 2026-05-06 16:59 | 36.92348 | 34.66449 | 36037 ft | 424 kts | 269° |
| 2026-05-06 17:00 | 36.92224 | 34.62766 | 36264 ft | 424 kts | 269° |
| 2026-05-06 17:00 | 36.92099 | 34.59090 | 36513 ft | 423 kts | 269° |
| 2026-05-06 17:00 | 36.91971 | 34.55393 | 36737 ft | 424 kts | 269° |
| 2026-05-06 17:00 | 36.91837 | 34.51526 | 36966 ft | 424 kts | 269° |
| 2026-05-06 17:01 | 36.91697 | 34.47521 | 37111 ft | 426 kts | 269° |
| 2026-05-06 17:01 | 36.91433 | 34.40048 | 37127 ft | 423 kts | 269° |
| 2026-05-06 17:02 | 36.91135 | 34.32685 | 37136 ft | 423 kts | 268° |
| 2026-05-06 17:02 | 36.90816 | 34.25391 | 37136 ft | 423 kts | 268° |
| 2026-05-06 17:03 | 36.90495 | 34.18055 | 37139 ft | 424 kts | 268° |
| 2026-05-06 17:03 | 36.90173 | 34.10730 | 37133 ft | 423 kts | 268° |
| 2026-05-06 17:04 | 36.89847 | 34.03408 | 37123 ft | 424 kts | 268° |
| 2026-05-06 17:04 | 36.89518 | 33.96077 | 37119 ft | 423 kts | 268° |
| 2026-05-06 17:05 | 36.89184 | 33.88772 | 37118 ft | 423 kts | 268° |
| 2026-05-06 17:05 | 36.88842 | 33.81376 | 37114 ft | 423 kts | 268° |
| 2026-05-06 17:06 | 36.88488 | 33.73836 | 37117 ft | 424 kts | 269° |
| 2026-05-06 17:06 | 36.88123 | 33.66128 | 37118 ft | 425 kts | 269° |
| 2026-05-06 17:07 | 36.87714 | 33.57653 | 37116 ft | 422 kts | 269° |
| 2026-05-06 17:07 | 36.87339 | 33.49972 | 37113 ft | 422 kts | 269° |
| 2026-05-06 17:08 | 36.86969 | 33.42468 | 37121 ft | 423 kts | 269° |
| 2026-05-06 17:08 | 36.86588 | 33.34839 | 37119 ft | 423 kts | 268° |
| 2026-05-06 17:09 | 36.86292 | 33.27348 | 37120 ft | 422 kts | 271° |
| 2026-05-06 17:09 | 36.86467 | 33.19741 | 37112 ft | 422 kts | 274° |
| 2026-05-06 17:10 | 36.86786 | 33.12065 | 37108 ft | 422 kts | 275° |
| 2026-05-06 17:10 | 36.87075 | 33.04581 | 37104 ft | 422 kts | 274° |
| 2026-05-06 17:11 | 36.87324 | 32.97278 | 37098 ft | 420 kts | 274° |
| 2026-05-06 17:11 | 36.87555 | 32.89994 | 37104 ft | 421 kts | 274° |
| 2026-05-06 17:12 | 36.87777 | 32.82740 | 37110 ft | 420 kts | 274° |
| 2026-05-06 17:12 | 36.87991 | 32.75467 | 37115 ft | 420 kts | 274° |
| 2026-05-06 17:13 | 36.88202 | 32.68136 | 37127 ft | 421 kts | 274° |
| 2026-05-06 17:13 | 36.88409 | 32.60748 | 37113 ft | 420 kts | 274° |
| 2026-05-06 17:14 | 36.88611 | 32.53446 | 37116 ft | 421 kts | 274° |
| 2026-05-06 17:14 | 36.88829 | 32.45290 | 37118 ft | 421 kts | 275° |
| 2026-05-06 17:15 | 36.89044 | 32.37066 | 37139 ft | 422 kts | 275° |
| 2026-05-06 17:15 | 36.89254 | 32.28815 | 37152 ft | 421 kts | 274° |
| 2026-05-06 17:16 | 36.89456 | 32.20715 | 37157 ft | 421 kts | 274° |
| 2026-05-06 17:16 | 36.89656 | 32.12484 | 37146 ft | 419 kts | 274° |
| 2026-05-06 17:17 | 36.89846 | 32.04383 | 37135 ft | 419 kts | 274° |
| 2026-05-06 17:17 | 36.90033 | 31.96204 | 37125 ft | 419 kts | 274° |
| 2026-05-06 17:18 | 36.90212 | 31.88123 | 37155 ft | 419 kts | 275° |
| 2026-05-06 17:18 | 36.90389 | 31.79923 | 37146 ft | 419 kts | 275° |
| 2026-05-06 17:19 | 36.90558 | 31.71703 | 37148 ft | 420 kts | 275° |
| 2026-05-06 17:19 | 36.90705 | 31.64249 | 37134 ft | 419 kts | 275° |
| 2026-05-06 17:20 | 36.90850 | 31.56797 | 37135 ft | 417 kts | 275° |
| 2026-05-06 17:20 | 36.90997 | 31.49087 | 37129 ft | 417 kts | 275° |
| 2026-05-06 17:21 | 36.91137 | 31.41552 | 37120 ft | 418 kts | 275° |
| 2026-05-06 17:21 | 36.91266 | 31.34140 | 37102 ft | 417 kts | 274° |
| 2026-05-06 17:22 | 36.91392 | 31.26725 | 37089 ft | 418 kts | 274° |
| 2026-05-06 17:22 | 36.91512 | 31.19252 | 37076 ft | 417 kts | 274° |
| 2026-05-06 17:23 | 36.91629 | 31.11748 | 36806 ft | 419 kts | 274° |
| 2026-05-06 17:23 | 36.91688 | 31.07872 | 36520 ft | 417 kts | 274° |
| 2026-05-06 17:23 | 36.91746 | 31.03954 | 36222 ft | 415 kts | 275° |
| 2026-05-06 17:23 | 36.91803 | 30.99957 | 36090 ft | 413 kts | 275° |
| 2026-05-06 17:24 | 36.91862 | 30.95893 | 36087 ft | 416 kts | 274° |
| 2026-05-06 17:24 | 36.91979 | 30.87673 | 36080 ft | 418 kts | 275° |
| 2026-05-06 17:25 | 36.92588 | 30.79406 | 36077 ft | 412 kts | 287° |
| 2026-05-06 17:25 | 36.94976 | 30.71707 | 36077 ft | 408 kts | 297° |
| 2026-05-06 17:26 | 36.97942 | 30.64313 | 36083 ft | 408 kts | 298° |
| 2026-05-06 17:26 | 37.00806 | 30.57179 | 36092 ft | 408 kts | 298° |
| 2026-05-06 17:27 | 37.03737 | 30.49740 | 36109 ft | 407 kts | 298° |
| 2026-05-06 17:27 | 37.06584 | 30.42455 | 36121 ft | 408 kts | 298° |
| 2026-05-06 17:28 | 37.09460 | 30.35063 | 36126 ft | 407 kts | 298° |
| 2026-05-06 17:28 | 37.12326 | 30.27669 | 36122 ft | 407 kts | 297° |
| 2026-05-06 17:29 | 37.15191 | 30.20265 | 36128 ft | 407 kts | 298° |
| 2026-05-06 17:29 | 37.18069 | 30.12810 | 36130 ft | 407 kts | 297° |
| 2026-05-06 17:30 | 37.20905 | 30.05444 | 36138 ft | 407 kts | 297° |
| 2026-05-06 17:30 | 37.23716 | 29.98151 | 36137 ft | 406 kts | 298° |
| 2026-05-06 17:31 | 37.26309 | 29.91774 | 36134 ft | 406 kts | 300° |
| 2026-05-06 17:31 | 37.29168 | 29.84872 | 36128 ft | 406 kts | 300° |
| 2026-05-06 17:32 | 37.32167 | 29.77587 | 36128 ft | 407 kts | 300° |
| 2026-05-06 17:32 | 37.35142 | 29.70272 | 36131 ft | 406 kts | 299° |
| 2026-05-06 17:33 | 37.37989 | 29.62949 | 36131 ft | 406 kts | 298° |
| 2026-05-06 17:33 | 37.40773 | 29.55650 | 36131 ft | 406 kts | 298° |
| 2026-05-06 17:34 | 37.43626 | 29.48182 | 36136 ft | 406 kts | 298° |
| 2026-05-06 17:34 | 37.46294 | 29.41165 | 36131 ft | 404 kts | 297° |
| 2026-05-06 17:34 | 37.47517 | 29.37580 | 35998 ft | 408 kts | 295° |
| 2026-05-06 17:35 | 37.48569 | 29.34162 | 35769 ft | 407 kts | 294° |
| 2026-05-06 17:35 | 37.49554 | 29.30829 | 35546 ft | 406 kts | 293° |
| 2026-05-06 17:35 | 37.50581 | 29.27332 | 35236 ft | 406 kts | 294° |
| 2026-05-06 17:36 | 37.52655 | 29.20362 | 34285 ft | 402 kts | 294° |
| 2026-05-06 17:36 | 37.53655 | 29.17040 | 33748 ft | 402 kts | 295° |
| 2026-05-06 17:36 | 37.54669 | 29.13690 | 33114 ft | 404 kts | 294° |
| 2026-05-06 17:36 | 37.55689 | 29.10329 | 32429 ft | 406 kts | 294° |
| 2026-05-06 17:37 | 37.56767 | 29.06777 | 31692 ft | 408 kts | 294° |
| 2026-05-06 17:37 | 37.57787 | 29.03407 | 30994 ft | 409 kts | 295° |
| 2026-05-06 17:37 | 37.58813 | 29.00016 | 30275 ft | 410 kts | 295° |
| 2026-05-06 17:37 | 37.59828 | 28.96657 | 29574 ft | 412 kts | 295° |
| 2026-05-06 17:38 | 37.60856 | 28.93249 | 28892 ft | 416 kts | 294° |
| 2026-05-06 17:38 | 37.61904 | 28.89772 | 28204 ft | 420 kts | 295° |
| 2026-05-06 17:38 | 37.62966 | 28.86253 | 27517 ft | 425 kts | 294° |
| 2026-05-06 17:38 | 37.64016 | 28.82766 | 26846 ft | 428 kts | 294° |
| 2026-05-06 17:39 | 37.65087 | 28.79201 | 26164 ft | 431 kts | 294° |
| 2026-05-06 17:39 | 37.66157 | 28.75633 | 25507 ft | 434 kts | 294° |
| 2026-05-06 17:39 | 37.67222 | 28.72080 | 24837 ft | 432 kts | 294° |
| 2026-05-06 17:39 | 37.68260 | 28.68597 | 24159 ft | 420 kts | 294° |
| 2026-05-06 17:40 | 37.69276 | 28.65181 | 23483 ft | 408 kts | 294° |
| 2026-05-06 17:40 | 37.70252 | 28.61898 | 22826 ft | 398 kts | 294° |
| 2026-05-06 17:40 | 37.71206 | 28.58685 | 22169 ft | 389 kts | 294° |
| 2026-05-06 17:40 | 37.72140 | 28.55539 | 21563 ft | 383 kts | 294° |
| 2026-05-06 17:41 | 37.73075 | 28.52396 | 21049 ft | 378 kts | 294° |
| 2026-05-06 17:41 | 37.74004 | 28.49275 | 20543 ft | 377 kts | 294° |
| 2026-05-06 17:41 | 37.74928 | 28.46171 | 20073 ft | 375 kts | 294° |
| 2026-05-06 17:41 | 37.75856 | 28.43045 | 19647 ft | 373 kts | 294° |
| 2026-05-06 17:42 | 37.76767 | 28.39975 | 19217 ft | 372 kts | 294° |
| 2026-05-06 17:42 | 37.77694 | 28.36844 | 18774 ft | 371 kts | 294° |
| 2026-05-06 17:42 | 37.78615 | 28.33724 | 18335 ft | 369 kts | 293° |
| 2026-05-06 17:42 | 37.79503 | 28.30712 | 17911 ft | 368 kts | 293° |
| 2026-05-06 17:43 | 37.80400 | 28.27666 | 17486 ft | 365 kts | 293° |
| 2026-05-06 17:43 | 37.81284 | 28.24662 | 17060 ft | 364 kts | 293° |
| 2026-05-06 17:43 | 37.82203 | 28.21538 | 16619 ft | 362 kts | 293° |
| 2026-05-06 17:43 | 37.83089 | 28.18524 | 16187 ft | 359 kts | 293° |
| 2026-05-06 17:44 | 37.83978 | 28.15497 | 15757 ft | 359 kts | 293° |
| 2026-05-06 17:44 | 37.84856 | 28.12501 | 15333 ft | 357 kts | 293° |
| 2026-05-06 17:44 | 37.85748 | 28.09452 | 14884 ft | 353 kts | 293° |
| 2026-05-06 17:44 | 37.86616 | 28.06487 | 14453 ft | 352 kts | 293° |
| 2026-05-06 17:45 | 37.87491 | 28.03486 | 14003 ft | 343 kts | 293° |
| 2026-05-06 17:45 | 37.88315 | 28.00653 | 13575 ft | 332 kts | 292° |
| 2026-05-06 17:45 | 37.89146 | 27.97791 | 13153 ft | 316 kts | 293° |
| 2026-05-06 17:45 | 37.89908 | 27.95167 | 12748 ft | 303 kts | 293° |
| 2026-05-06 17:46 | 37.90622 | 27.92712 | 12354 ft | 292 kts | 293° |
| 2026-05-06 17:46 | 37.91317 | 27.90328 | 11957 ft | 283 kts | 293° |
| 2026-05-06 17:46 | 37.91998 | 27.87988 | 11577 ft | 278 kts | 293° |
| 2026-05-06 17:46 | 37.92665 | 27.85698 | 11212 ft | 276 kts | 294° |
| 2026-05-06 17:47 | 37.93327 | 27.83417 | 10888 ft | 274 kts | 294° |
| 2026-05-06 17:47 | 37.93990 | 27.81137 | 10600 ft | 275 kts | 293° |
| 2026-05-06 17:47 | 37.94643 | 27.78880 | 10338 ft | 276 kts | 293° |
| 2026-05-06 17:47 | 37.95303 | 27.76599 | 10070 ft | 275 kts | 294° |
| 2026-05-06 17:48 | 37.95962 | 27.74326 | 9798 ft | 273 kts | 293° |
| 2026-05-06 17:48 | 37.96616 | 27.72065 | 9530 ft | 272 kts | 293° |
| 2026-05-06 17:48 | 37.97255 | 27.69845 | 9379 ft | 267 kts | 293° |
| 2026-05-06 17:48 | 37.97903 | 27.67592 | 9223 ft | 272 kts | 293° |
| 2026-05-06 17:49 | 37.98552 | 27.65340 | 8963 ft | 272 kts | 293° |
| 2026-05-06 17:49 | 37.99197 | 27.63098 | 8694 ft | 270 kts | 293° |
| 2026-05-06 17:49 | 37.99901 | 27.60645 | 8395 ft | 269 kts | 293° |
| 2026-05-06 17:49 | 38.00579 | 27.58284 | 8103 ft | 268 kts | 293° |
| 2026-05-06 17:50 | 38.01247 | 27.55956 | 7814 ft | 263 kts | 293° |
| 2026-05-06 17:50 | 38.01908 | 27.53647 | 7519 ft | 259 kts | 293° |
| 2026-05-06 17:50 | 38.02531 | 27.51472 | 7238 ft | 255 kts | 293° |
| 2026-05-06 17:50 | 38.03133 | 27.49370 | 6962 ft | 251 kts | 293° |
| 2026-05-06 17:51 | 38.03733 | 27.47275 | 6691 ft | 248 kts | 292° |
| 2026-05-06 17:51 | 38.04321 | 27.45220 | 6409 ft | 246 kts | 293° |
| 2026-05-06 17:51 | 38.04900 | 27.43193 | 6137 ft | 243 kts | 292° |
| 2026-05-06 17:51 | 38.05477 | 27.41174 | 5874 ft | 240 kts | 292° |
| 2026-05-06 17:52 | 38.06038 | 27.39206 | 5628 ft | 236 kts | 292° |
| 2026-05-06 17:52 | 38.06593 | 27.37262 | 5383 ft | 233 kts | 292° |
| 2026-05-06 17:52 | 38.07140 | 27.35339 | 5149 ft | 229 kts | 292° |
| 2026-05-06 17:52 | 38.07628 | 27.33404 | 4897 ft | 225 kts | 284° |
| 2026-05-06 17:53 | 38.07653 | 27.31400 | 4651 ft | 224 kts | 260° |
| 2026-05-06 17:53 | 38.07254 | 27.29508 | 4435 ft | 220 kts | 255° |
| 2026-05-06 17:53 | 38.06844 | 27.27678 | 4239 ft | 214 kts | 257° |
| 2026-05-06 17:53 | 38.06530 | 27.25842 | 4039 ft | 208 kts | 268° |
| 2026-05-06 17:54 | 38.06732 | 27.24097 | 3917 ft | 193 kts | 299° |
| 2026-05-06 17:54 | 38.07544 | 27.22850 | 3898 ft | 176 kts | 325° |
| 2026-05-06 17:54 | 38.08620 | 27.22082 | 3896 ft | 174 kts | 338° |
| 2026-05-06 17:54 | 38.09808 | 27.21550 | 3895 ft | 174 kts | 344° |
| 2026-05-06 17:55 | 38.11005 | 27.21148 | 3788 ft | 176 kts | 346° |
| 2026-05-06 17:55 | 38.12227 | 27.20778 | 3508 ft | 177 kts | 347° |
| 2026-05-06 17:55 | 38.13497 | 27.20397 | 3252 ft | 173 kts | 347° |
| 2026-05-06 17:55 | 38.14714 | 27.20034 | 3007 ft | 171 kts | 346° |
| 2026-05-06 17:56 | 38.15976 | 27.19658 | 2773 ft | 162 kts | 346° |
| 2026-05-06 17:56 | 38.17117 | 27.19318 | 2520 ft | 161 kts | 346° |
| 2026-05-06 17:56 | 38.18211 | 27.18983 | 2329 ft | 154 kts | 345° |
| 2026-05-06 17:56 | 38.19240 | 27.18674 | 2103 ft | 149 kts | 346° |
| 2026-05-06 17:57 | 38.20253 | 27.18388 | 1912 ft | 150 kts | 346° |
| 2026-05-06 17:57 | 38.21260 | 27.18059 | 1706 ft | 147 kts | 343° |
| 2026-05-06 17:57 | 38.22270 | 27.17787 | 1514 ft | 153 kts | 347° |
| 2026-05-06 17:57 | 38.23318 | 27.17450 | 1303 ft | 155 kts | 341° |
| 2026-05-06 17:58 | 38.24385 | 27.17111 | 1117 ft | 152 kts | 345° |
| 2026-05-06 17:58 | 38.25389 | 27.16861 | 907 ft | 145 kts | 344° |
| 2026-05-06 17:58 | 38.26387 | 27.16542 | 665 ft | 148 kts | 342° |
| 2026-05-06 17:58 | 38.27410 | 27.16241 | 484 ft | 153 kts | 345° |
| 2026-05-06 17:59 | 38.28442 | 27.15936 | 443 ft | 148 kts | 346° |
| 2026-05-06 17:59 | 38.29393 | 27.15643 | 413 ft | 120 kts | 346° |
| 2026-05-06 17:59 | 38.29852 | 27.15403 | 418 ft | 32 kts | 320° |
| 2026-05-06 17:59 | 38.29984 | 27.15227 | 419 ft | 19 kts | 277° |
| 2026-05-06 18:00 | 38.29964 | 27.15099 | 418 ft | 7 kts | 256° |
| 2026-05-06 18:00 | 38.29951 | 27.15033 | 418 ft | 7 kts | 256° |
| 2026-05-06 18:00 | 38.29941 | 27.14983 | 419 ft | 3 kts | 256° |
| 2026-05-06 18:00 | 38.29927 | 27.14965 | 419 ft | 5 kts | 197° |
| 2026-05-06 18:01 | 38.29868 | 27.14973 | 418 ft | 11 kts | 166° |
| 2026-05-06 18:01 | 38.29781 | 27.14999 | 414 ft | 14 kts | 167° |
| 2026-05-06 18:01 | 38.29703 | 27.15027 | 411 ft | 7 kts | 126° |
| 2026-05-06 18:01 | 38.29713 | 27.15077 | 411 ft | 5 kts | 72° |
| 2026-05-06 18:02 | 38.29720 | 27.15107 | 412 ft | 0 kts | 76° |
| 2026-05-06 18:02 | 38.29720 | 27.15108 | 412 ft | 0 kts | 76° |